Terminal Aerodrome Forecast
Issued by NWS

Home | Current Version | Previous Version | Text Only | Print | Product List | Glossary On
Versions: 1 2 3 4 5 6 7 8 9 10 11 12 13 14
500
FTPA31 PHFO 201138
TAFSTU
TAF
NSTU 201138Z 2012/2112 10016KT P6SM VCSH SCT015 BKN040 BKN100
      TEMPO 2012/2016 4SM SHRA SCT015 BKN025 OVC040=

USA.gov is the U.S. government's official web portal to all federal, state and local government web resources and services.